Time;durP1;ratioP1;P1;durP2;ratioP2;P2;SDS_P1;SDS_P2;PMS_P1;PMS_P2;Temp;Humidity;BMP_temperature;BMP_pressure;BME280_temperature;BME280_humidity;BME280_pressure;Samples;Min_cycle;Max_cycle;Signal;HPM_P1;HPM_P2
2024/02/16 00:00:21;;;;;;;30.33;15.10;;;7.40;99.90;;;;;;4932119;29;20058;-82
2024/02/16 00:02:50;;;;;;;34.40;14.95;;;7.40;99.90;;;;;;4934556;29;20118;-82
2024/02/16 00:05:19;;;;;;;31.63;14.88;;;7.40;99.90;;;;;;4930418;29;20788;-82
2024/02/16 00:07:49;;;;;;;34.45;14.63;;;7.50;99.90;;;;;;4927072;29;20051;-82
2024/02/16 00:10:19;;;;;;;31.65;14.80;;;7.40;99.90;;;;;;4931991;29;20560;-82
2024/02/16 00:12:48;;;;;;;34.33;14.32;;;7.40;99.90;;;;;;4909899;29;20056;-80
2024/02/16 00:15:16;;;;;;;33.67;13.88;;;7.40;99.90;;;;;;4911654;29;20147;-79
2024/02/16 00:17:45;;;;;;;30.10;13.95;;;7.40;99.90;;;;;;4911294;29;20051;-81
2024/02/16 00:20:13;;;;;;;34.05;15.45;;;7.40;99.90;;;;;;4926848;29;20123;-81
2024/02/16 00:22:42;;;;;;;31.08;13.90;;;7.40;99.90;;;;;;4911781;29;20044;-78
2024/02/16 00:25:12;;;;;;;34.80;14.93;;;7.40;99.90;;;;;;4912573;29;20047;-79
2024/02/16 00:27:41;;;;;;;30.48;13.88;;;7.40;99.90;;;;;;4902264;29;20130;-82
2024/02/16 00:30:11;;;;;;;34.22;14.65;;;7.40;99.90;;;;;;4905166;29;20059;-81
2024/02/16 00:32:40;;;;;;;29.25;14.70;;;7.30;99.90;;;;;;4916622;29;20138;-82
2024/02/16 00:35:09;;;;;;;32.45;14.70;;;7.40;99.90;;;;;;4904096;29;20134;-79
2024/02/16 00:37:38;;;;;;;27.88;13.77;;;7.40;99.90;;;;;;4921830;29;20150;-81
2024/02/16 00:40:07;;;;;;;32.25;15.35;;;7.40;99.90;;;;;;4921251;29;20039;-78
2024/02/16 00:42:37;;;;;;;30.90;14.27;;;7.40;99.90;;;;;;4920167;29;20040;-82
2024/02/16 00:45:06;;;;;;;30.38;14.00;;;7.30;99.90;;;;;;4928376;29;20872;-80
2024/02/16 00:47:35;;;;;;;32.97;14.85;;;7.30;99.90;;;;;;4928750;29;20477;-80
2024/02/16 00:50:05;;;;;;;30.10;14.50;;;7.30;99.90;;;;;;4931640;29;20087;-81
2024/02/16 00:52:34;;;;;;;36.35;15.77;;;7.30;99.90;;;;;;4914752;29;20063;-79
2024/02/16 00:55:03;;;;;;;34.75;16.40;;;7.30;99.90;;;;;;4926736;29;20712;-82
2024/02/16 00:57:34;;;;;;;33.45;14.32;;;7.30;99.90;;;;;;4930393;29;20051;-81
2024/02/16 01:00:05;;;;;;;30.27;14.85;;;7.30;99.90;;;;;;4931177;29;20528;-80
2024/02/16 01:02:34;;;;;;;33.53;15.10;;;7.30;99.90;;;;;;4934322;29;20421;-79
2024/02/16 01:05:03;;;;;;;35.00;15.55;;;7.30;99.90;;;;;;4916823;29;20056;-80
2024/02/16 01:07:32;;;;;;;31.23;15.32;;;7.30;99.90;;;;;;4933270;29;20071;-81
2024/02/16 01:10:03;;;;;;;29.85;14.32;;;7.30;99.90;;;;;;4931378;29;20462;-81
2024/02/16 01:12:33;;;;;;;35.33;15.35;;;7.30;99.90;;;;;;4915319;29;20051;-79
2024/02/16 01:15:02;;;;;;;32.13;14.50;;;7.30;99.90;;;;;;4917061;29;20052;-79
2024/02/16 01:17:33;;;;;;;31.00;14.35;;;7.30;99.90;;;;;;4914823;29;20043;-81
2024/02/16 01:20:01;;;;;;;29.52;14.55;;;7.30;99.90;;;;;;4915005;29;20409;-81
2024/02/16 01:22:30;;;;;;;28.38;14.30;;;7.30;99.90;;;;;;4917908;29;20087;-80
2024/02/16 01:24:58;;;;;;;35.72;14.70;;;7.30;99.90;;;;;;4918041;29;20052;-79
2024/02/16 01:27:28;;;;;;;35.70;16.40;;;7.30;99.90;;;;;;4910184;29;20115;-80
2024/02/16 01:29:57;;;;;;;32.25;14.50;;;7.30;99.90;;;;;;4909455;29;20126;-83
2024/02/16 01:32:25;;;;;;;33.47;14.48;;;7.30;99.90;;;;;;4926912;29;20035;-83
2024/02/16 01:34:55;;;;;;;29.80;14.88;;;7.30;99.90;;;;;;4915814;29;20039;-79
2024/02/16 01:37:24;;;;;;;31.00;14.30;;;7.30;99.90;;;;;;4914799;29;20517;-80
2024/02/16 01:39:52;;;;;;;34.67;15.93;;;7.30;99.90;;;;;;4928642;29;20075;-82
2024/02/16 01:42:21;;;;;;;31.13;13.98;;;7.30;99.90;;;;;;4915926;29;20047;-82
2024/02/16 01:44:49;;;;;;;32.25;16.35;;;7.30;99.90;;;;;;4916651;29;20047;-81
2024/02/16 01:47:20;;;;;;;32.47;14.32;;;7.30;99.90;;;;;;4932317;29;20051;-81
2024/02/16 01:49:49;;;;;;;33.67;15.00;;;7.30;99.90;;;;;;4926619;29;20072;-80
2024/02/16 01:52:20;;;;;;;30.95;14.32;;;7.30;99.90;;;;;;4931657;29;20061;-78
2024/02/16 01:54:48;;;;;;;33.38;15.77;;;7.20;99.90;;;;;;4929943;29;20564;-80
2024/02/16 01:57:17;;;;;;;32.85;15.65;;;7.30;99.90;;;;;;4914960;29;20044;-82
2024/02/16 01:59:46;;;;;;;28.60;14.05;;;7.30;99.90;;;;;;4911699;29;20051;-79
2024/02/16 02:02:15;;;;;;;31.70;14.80;;;7.20;99.90;;;;;;4931632;29;20416;-82
2024/02/16 02:04:44;;;;;;;32.13;15.40;;;7.20;99.90;;;;;;4928023;29;20497;-79
2024/02/16 02:07:14;;;;;;;31.98;14.68;;;7.20;99.90;;;;;;4930536;29;20091;-81
2024/02/16 02:09:44;;;;;;;31.00;14.73;;;7.20;99.90;;;;;;4929359;29;20055;-79
2024/02/16 02:12:13;;;;;;;32.42;13.57;;;7.20;99.90;;;;;;4917226;29;20143;-82
2024/02/16 02:14:42;;;;;;;28.63;13.15;;;7.10;99.90;;;;;;4931897;29;20047;-81
2024/02/16 02:17:10;;;;;;;28.02;14.20;;;7.20;99.90;;;;;;4932354;29;20076;-82
2024/02/16 02:19:39;;;;;;;36.67;14.98;;;7.20;99.90;;;;;;4908757;29;20058;-81
2024/02/16 02:22:14;;;;;;;29.42;13.05;;;7.10;99.90;;;;;;4930594;29;20562;-79
2024/02/16 02:24:43;;;;;;;30.52;13.27;;;7.10;99.90;;;;;;4930037;29;20048;-82
2024/02/16 02:27:12;;;;;;;30.27;14.25;;;7.10;99.90;;;;;;4930115;29;20058;-80
2024/02/16 02:29:41;;;;;;;31.17;14.30;;;7.10;99.90;;;;;;4932684;29;20046;-81
2024/02/16 02:32:11;;;;;;;35.38;14.90;;;7.10;99.90;;;;;;4916749;29;20110;-81
2024/02/16 02:34:39;;;;;;;31.83;14.65;;;7.10;99.90;;;;;;4928152;29;20060;-82
2024/02/16 02:37:09;;;;;;;26.77;12.82;;;7.10;99.90;;;;;;4912411;29;20036;-79
2024/02/16 02:39:38;;;;;;;33.50;13.65;;;7.10;99.90;;;;;;4929560;29;20071;-81
2024/02/16 02:42:08;;;;;;;30.25;13.90;;;7.00;99.90;;;;;;4928697;29;20041;-79
2024/02/16 02:44:36;;;;;;;29.77;13.27;;;7.00;99.90;;;;;;4932052;29;20056;-78
2024/02/16 02:47:05;;;;;;;32.53;14.63;;;7.00;99.90;;;;;;4912538;29;20102;-81
2024/02/16 02:49:34;;;;;;;29.45;13.25;;;7.00;99.90;;;;;;4931564;29;20051;-80
2024/02/16 02:52:04;;;;;;;30.38;13.43;;;7.00;99.90;;;;;;4914603;29;20047;-81
2024/02/16 02:54:33;;;;;;;28.77;14.93;;;7.00;99.90;;;;;;4931202;29;20043;-81
2024/02/16 02:57:04;;;;;;;32.78;14.57;;;6.90;99.90;;;;;;4926618;29;20048;-81
2024/02/16 02:59:34;;;;;;;30.05;13.70;;;6.90;99.90;;;;;;4928470;29;20075;-82
2024/02/16 03:02:03;;;;;;;32.63;14.43;;;6.90;99.90;;;;;;4929371;29;20046;-81
2024/02/16 03:04:33;;;;;;;29.70;13.70;;;6.90;99.90;;;;;;4934014;29;20454;-79
2024/02/16 03:07:02;;;;;;;34.78;14.65;;;6.90;99.90;;;;;;4914023;29;20521;-81
2024/02/16 03:09:30;;;;;;;30.10;14.50;;;6.80;99.90;;;;;;4928600;29;20543;-80
2024/02/16 03:11:59;;;;;;;32.90;14.85;;;6.80;99.90;;;;;;4915610;29;20048;-80
2024/02/16 03:14:29;;;;;;;32.13;14.05;;;6.70;99.90;;;;;;4917430;29;20135;-79
2024/02/16 03:16:58;;;;;;;31.95;13.85;;;6.70;99.90;;;;;;4930775;29;20070;-80
2024/02/16 03:19:26;;;;;;;30.63;13.65;;;6.70;99.90;;;;;;4928636;29;20491;-80
2024/02/16 03:21:55;;;;;;;34.90;14.32;;;6.60;99.90;;;;;;4909139;29;20506;-79
2024/02/16 03:24:24;;;;;;;28.17;14.30;;;6.60;99.90;;;;;;4927309;29;20047;-80
2024/02/16 03:26:52;;;;;;;32.08;14.18;;;6.60;99.90;;;;;;4917596;29;20048;-80
2024/02/16 03:29:20;;;;;;;31.00;13.82;;;6.60;99.90;;;;;;4917283;29;20909;-80
2024/02/16 03:31:51;;;;;;;30.98;15.02;;;6.60;99.90;;;;;;4932067;29;20044;-79
2024/02/16 03:34:19;;;;;;;32.63;15.65;;;6.50;99.90;;;;;;4939549;29;20044;-79
2024/02/16 03:36:48;;;;;;;39.00;16.20;;;6.50;99.90;;;;;;4933646;29;20044;-79
2024/02/16 03:39:19;;;;;;;32.80;14.68;;;6.50;99.90;;;;;;4936446;29;20524;-79
2024/02/16 03:41:49;;;;;;;35.92;14.82;;;6.40;99.90;;;;;;4937526;29;20044;-79
2024/02/16 03:44:18;;;;;;;38.22;15.32;;;6.40;99.90;;;;;;4937859;29;20067;-79
2024/02/16 03:46:47;;;;;;;39.13;18.05;;;6.40;99.90;;;;;;4921055;29;20051;-79
2024/02/16 03:49:17;;;;;;;41.08;17.83;;;6.40;99.90;;;;;;4939377;29;20044;-79
2024/02/16 03:51:45;;;;;;;40.42;15.95;;;6.30;99.90;;;;;;4936172;29;20051;-78
2024/02/16 03:54:14;;;;;;;44.50;16.95;;;6.30;99.90;;;;;;4941757;29;20043;-79
2024/02/16 03:56:45;;;;;;;36.25;16.02;;;6.20;99.90;;;;;;4939245;29;20047;-79
2024/02/16 03:59:13;;;;;;;35.20;15.73;;;6.20;99.90;;;;;;4939292;29;20067;-79
2024/02/16 04:01:42;;;;;;;34.88;16.23;;;6.20;99.90;;;;;;4921894;29;20114;-79
2024/02/16 04:04:11;;;;;;;39.75;17.35;;;6.10;99.90;;;;;;4938064;29;20060;-78
2024/02/16 04:06:41;;;;;;;36.85;16.85;;;6.10;99.90;;;;;;4927554;29;20050;-79
2024/02/16 04:09:12;;;;;;;34.20;15.32;;;6.10;99.90;;;;;;4927975;29;20062;-79
2024/02/16 04:11:40;;;;;;;37.88;17.10;;;5.90;99.90;;;;;;4945670;29;20039;-79
2024/02/16 04:14:09;;;;;;;37.25;16.60;;;6.00;99.90;;;;;;4941897;29;20048;-79
2024/02/16 04:16:38;;;;;;;40.03;17.58;;;6.10;99.90;;;;;;4927579;29;20071;-79
2024/02/16 04:19:07;;;;;;;40.83;17.25;;;6.00;99.90;;;;;;4941857;29;20064;-78
2024/02/16 04:21:36;;;;;;;42.47;19.52;;;6.00;99.90;;;;;;4939272;29;20043;-79
2024/02/16 04:24:07;;;;;;;44.72;20.95;;;6.00;99.90;;;;;;4942396;29;20067;-79
2024/02/16 04:26:35;;;;;;;43.55;20.48;;;5.90;99.90;;;;;;4942333;29;20044;-77
2024/02/16 04:29:05;;;;;;;48.00;21.75;;;5.90;99.90;;;;;;4927573;29;20043;-79
2024/02/16 04:31:34;;;;;;;46.15;20.50;;;5.80;99.90;;;;;;4942147;29;20047;-78
2024/02/16 04:34:02;;;;;;;48.35;20.70;;;5.80;99.90;;;;;;4943600;29;20040;-78
2024/02/16 04:36:31;;;;;;;46.47;21.13;;;5.80;99.90;;;;;;4936064;29;20047;-78
2024/02/16 04:39:00;;;;;;;46.05;20.52;;;5.80;99.90;;;;;;4931990;29;20056;-78
2024/02/16 04:41:30;;;;;;;38.75;18.52;;;5.80;99.90;;;;;;4923462;29;20058;-78
2024/02/16 04:43:59;;;;;;;49.60;20.00;;;5.70;99.90;;;;;;4932258;29;20051;-78
2024/02/16 04:46:27;;;;;;;41.63;18.42;;;5.70;99.90;;;;;;4921408;29;20052;-78
2024/02/16 04:48:56;;;;;;;46.55;19.70;;;5.70;99.90;;;;;;4929109;29;20058;-78
2024/02/16 04:51:25;;;;;;;48.20;19.85;;;5.60;99.90;;;;;;4927592;29;20067;-78
2024/02/16 04:53:54;;;;;;;49.33;20.20;;;5.70;99.90;;;;;;4930589;29;20052;-78
2024/02/16 04:56:23;;;;;;;43.53;20.33;;;5.70;99.90;;;;;;4941030;29;20095;-78
2024/02/16 04:58:53;;;;;;;49.15;20.10;;;5.60;99.90;;;;;;4929408;29;20071;-79
2024/02/16 05:01:21;;;;;;;46.35;22.52;;;5.60;99.90;;;;;;4937124;29;20059;-78
2024/02/16 05:03:50;;;;;;;48.47;20.70;;;5.50;99.90;;;;;;4941409;29;20044;-77
2024/02/16 05:06:19;;;;;;;46.83;20.70;;;5.40;99.90;;;;;;4928478;29;20047;-78
2024/02/16 05:08:49;;;;;;;43.15;20.77;;;5.50;99.90;;;;;;4945401;29;20861;-79
2024/02/16 05:11:18;;;;;;;42.20;20.27;;;5.40;99.90;;;;;;4930550;29;20067;-78
2024/02/16 05:13:47;;;;;;;47.45;19.83;;;5.40;99.90;;;;;;4926117;29;20071;-78
2024/02/16 05:16:17;;;;;;;44.83;20.75;;;6.40;99.90;;;;;;4925378;29;20063;-78
2024/02/16 05:18:46;;;;;;;49.90;21.35;;;5.40;99.90;;;;;;4931281;29;20055;-78
2024/02/16 05:21:14;;;;;;;47.13;21.55;;;5.40;99.90;;;;;;4941647;29;20052;-79
2024/02/16 05:23:43;;;;;;;52.95;22.52;;;5.30;99.90;;;;;;4930824;29;20050;-78
2024/02/16 05:26:12;;;;;;;47.95;22.10;;;5.30;99.90;;;;;;4945827;29;20075;-78
2024/02/16 05:28:41;;;;;;;52.25;21.52;;;5.30;99.90;;;;;;4931461;29;20051;-78
2024/02/16 05:31:16;;;;;;;49.60;22.40;;;5.30;99.90;;;;;;4929557;29;20036;-78
2024/02/16 05:33:49;;;;;;;49.25;21.83;;;5.20;99.90;;;;;;4930071;29;20051;-78
2024/02/16 05:36:20;;;;;;;50.15;23.55;;;5.20;99.90;;;;;;4931662;29;20063;-78
2024/02/16 05:38:49;;;;;;;53.88;22.58;;;5.20;99.90;;;;;;4951858;29;20048;-79
2024/02/16 05:41:18;;;;;;;56.63;22.67;;;5.20;99.90;;;;;;4935068;29;20075;-78
2024/02/16 05:43:48;;;;;;;52.08;22.52;;;5.30;99.90;;;;;;4937404;29;20055;-78
2024/02/16 05:46:17;;;;;;;66.10;25.60;;;5.20;99.90;;;;;;4947101;29;20046;-78
2024/02/16 05:48:48;;;;;;;61.85;24.63;;;5.10;99.90;;;;;;4949140;29;20123;-77
2024/02/16 05:51:18;;;;;;;69.78;25.88;;;5.10;99.90;;;;;;4950484;29;20044;-78
2024/02/16 05:53:47;;;;;;;71.82;28.90;;;5.10;99.90;;;;;;4936122;29;20043;-78
2024/02/16 05:56:15;;;;;;;80.82;31.25;;;5.10;99.90;;;;;;4947894;29;20040;-78
2024/02/16 05:58:44;;;;;;;70.53;27.25;;;5.10;99.90;;;;;;4951976;29;20490;-78
2024/02/16 06:01:14;;;;;;;68.10;25.75;;;4.80;99.90;;;;;;4933754;29;20075;-78
2024/02/16 06:03:43;;;;;;;62.67;25.67;;;5.00;99.90;;;;;;4948826;29;20075;-78
2024/02/16 06:06:13;;;;;;;62.40;26.65;;;5.00;99.90;;;;;;4927725;29;20323;-78
2024/02/16 06:08:41;;;;;;;59.72;24.05;;;5.00;99.90;;;;;;4943757;29;20219;-78
2024/02/16 06:11:10;;;;;;;49.67;22.27;;;5.00;99.90;;;;;;4948804;29;20120;-78
2024/02/16 06:13:39;;;;;;;51.17;20.85;;;4.90;99.90;;;;;;4942337;29;20068;-78
2024/02/16 06:16:09;;;;;;;46.05;20.25;;;5.00;99.90;;;;;;4944413;29;20098;-78
2024/02/16 06:18:37;;;;;;;44.72;20.55;;;4.90;99.90;;;;;;4942214;29;20042;-79
2024/02/16 06:21:06;;;;;;;45.15;19.50;;;4.80;99.90;;;;;;4925958;29;20119;-78
2024/02/16 06:23:36;;;;;;;40.20;19.48;;;4.90;99.90;;;;;;4925132;29;20043;-78
2024/02/16 06:26:07;;;;;;;43.08;19.80;;;4.80;99.90;;;;;;4940391;29;20035;-77
2024/02/16 06:28:36;;;;;;;44.63;19.38;;;4.90;99.90;;;;;;4926933;29;20535;-78
2024/02/16 06:31:05;;;;;;;45.20;19.50;;;4.80;99.90;;;;;;4938682;29;20055;-77
2024/02/16 06:33:33;;;;;;;44.75;18.58;;;4.90;99.90;;;;;;4921820;29;20063;-77
2024/02/16 06:36:02;;;;;;;45.17;19.80;;;4.90;99.90;;;;;;4937941;29;20058;-78
2024/02/16 06:38:31;;;;;;;40.10;17.55;;;4.90;99.90;;;;;;4946700;29;20036;-78
2024/02/16 06:41:00;;;;;;;42.95;17.83;;;5.00;99.90;;;;;;4953360;29;20043;-79
2024/02/16 06:43:30;;;;;;;46.17;18.52;;;5.00;99.90;;;;;;4942740;29;20120;-77
2024/02/16 06:45:58;;;;;;;44.92;20.35;;;5.10;99.90;;;;;;4943021;29;20055;-78
2024/02/16 06:48:26;;;;;;;41.80;18.50;;;5.10;99.90;;;;;;4938503;29;20126;-78
2024/02/16 06:50:55;;;;;;;46.30;20.23;;;5.10;99.90;;;;;;4926315;29;20567;-78
2024/02/16 06:53:24;;;;;;;50.95;22.33;;;5.20;99.90;;;;;;4943503;29;20071;-78
2024/02/16 06:55:52;;;;;;;53.33;22.38;;;5.90;99.90;;;;;;4927396;29;20128;-78
2024/02/16 06:58:22;;;;;;;48.13;21.15;;;5.30;99.90;;;;;;4945318;29;20055;-77
2024/02/16 07:00:53;;;;;;;45.72;20.17;;;5.40;99.90;;;;;;4942013;29;20048;-78
2024/02/16 07:03:22;;;;;;;44.88;19.35;;;5.40;99.90;;;;;;4922419;29;20040;-77
2024/02/16 07:05:51;;;;;;;43.72;20.05;;;5.40;99.90;;;;;;4940421;29;20047;-77
2024/02/16 07:08:19;;;;;;;44.42;19.35;;;5.50;99.90;;;;;;4942024;29;20528;-77
2024/02/16 07:10:48;;;;;;;44.35;18.88;;;5.50;99.90;;;;;;4944076;29;20084;-78
2024/02/16 07:13:17;;;;;;;40.58;16.70;;;6.60;99.90;;;;;;4938504;29;20058;-76
2024/02/16 07:15:47;;;;;;;43.42;17.95;;;5.60;99.90;;;;;;4918497;29;20048;-77
2024/02/16 07:18:16;;;;;;;42.92;17.20;;;5.70;99.90;;;;;;4919460;29;20084;-77
2024/02/16 07:20:45;;;;;;;39.13;15.18;;;5.80;99.90;;;;;;4944472;29;20044;-78
2024/02/16 07:23:17;;;;;;;38.28;17.42;;;5.90;99.90;;;;;;4934721;29;20060;-78
2024/02/16 07:25:46;;;;;;;37.90;16.45;;;6.00;99.90;;;;;;4926929;29;20119;-78
2024/02/16 07:28:14;;;;;;;35.50;16.15;;;6.00;99.90;;;;;;4934667;29;20107;-77
2024/02/16 07:30:43;;;;;;;36.28;16.40;;;6.10;99.90;;;;;;4920757;29;20086;-76
2024/02/16 07:33:13;;;;;;;35.50;16.17;;;6.10;99.90;;;;;;4934316;29;20568;-77
2024/02/16 07:35:41;;;;;;;41.30;17.40;;;6.20;99.90;;;;;;4932863;29;20520;-77
2024/02/16 07:38:10;;;;;;;37.47;16.77;;;6.20;99.90;;;;;;4931990;29;20038;-77
2024/02/16 07:40:38;;;;;;;35.88;15.93;;;6.30;99.90;;;;;;4928329;29;20051;-77
2024/02/16 07:43:08;;;;;;;35.45;16.80;;;6.40;99.90;;;;;;4929720;29;20135;-76
2024/02/16 07:45:36;;;;;;;40.97;16.98;;;6.40;99.90;;;;;;4928830;29;20059;-77
2024/02/16 07:48:07;;;;;;;26.27;11.52;;;6.60;99.90;;;;;;4916221;29;20039;-76
2024/02/16 07:50:38;;;;;;;30.75;12.75;;;6.60;99.90;;;;;;4919325;29;20071;-77
2024/02/16 07:53:07;;;;;;;34.38;14.63;;;6.60;99.90;;;;;;4923751;29;20048;-78
2024/02/16 07:55:35;;;;;;;33.80;15.85;;;6.70;99.90;;;;;;4935467;29;20501;-77
2024/02/16 07:58:14;;;;;;;32.08;15.00;;;6.80;99.90;;;;;;4916981;29;20082;-77
2024/02/16 08:00:43;;;;;;;34.75;14.73;;;6.90;99.90;;;;;;4926995;29;20086;-77
2024/02/16 08:03:11;;;;;;;31.92;13.85;;;7.00;99.90;;;;;;4928964;29;20054;-77
2024/02/16 08:05:42;;;;;;;30.13;11.85;;;7.10;99.90;;;;;;4933057;29;20055;-78
2024/02/16 08:08:11;;;;;;;28.70;12.75;;;7.20;99.90;;;;;;4934189;29;20105;-77
2024/02/16 08:10:39;;;;;;;26.52;13.23;;;7.20;99.90;;;;;;4932442;29;20131;-78
2024/02/16 08:13:07;;;;;;;23.25;12.13;;;7.30;99.90;;;;;;4932432;29;20097;-78
2024/02/16 08:15:36;;;;;;;27.75;12.32;;;7.40;99.90;;;;;;4913094;29;20056;-77
2024/02/16 08:18:05;;;;;;;22.67;11.32;;;7.50;99.90;;;;;;4927339;29;20051;-77
2024/02/16 08:20:34;;;;;;;28.00;12.43;;;7.50;99.90;;;;;;4930222;29;20067;-77
2024/02/16 08:23:04;;;;;;;27.08;12.73;;;7.50;99.90;;;;;;4929938;29;20069;-77
2024/02/16 08:25:33;;;;;;;26.00;12.38;;;7.60;99.90;;;;;;4913548;29;20052;-77
2024/02/16 08:28:02;;;;;;;24.73;11.10;;;7.70;99.90;;;;;;4929615;29;20073;-77
2024/02/16 08:30:30;;;;;;;28.00;12.73;;;7.70;99.90;;;;;;4916668;29;20731;-77
2024/02/16 08:33:00;;;;;;;30.27;13.35;;;7.80;99.90;;;;;;4934019;29;20055;-78
2024/02/16 08:35:29;;;;;;;25.80;11.82;;;7.90;99.90;;;;;;4917166;29;20103;-77
2024/02/16 08:37:58;;;;;;;27.65;11.85;;;8.00;99.90;;;;;;4913176;29;20051;-77
2024/02/16 08:40:28;;;;;;;26.02;11.35;;;7.90;99.90;;;;;;4917622;29;20055;-79
2024/02/16 08:42:58;;;;;;;27.80;12.77;;;8.00;99.90;;;;;;4932864;29;20044;-78
2024/02/16 08:45:27;;;;;;;25.50;11.93;;;8.10;99.90;;;;;;4914029;29;20055;-77
2024/02/16 08:47:57;;;;;;;23.30;10.60;;;8.20;99.90;;;;;;4931232;29;20691;-81
2024/02/16 08:50:25;;;;;;;28.02;12.50;;;8.30;99.90;;;;;;4924740;29;20051;-77
2024/02/16 08:52:54;;;;;;;23.13;11.20;;;8.40;99.90;;;;;;4933267;29;20067;-77
2024/02/16 08:55:22;;;;;;;21.85;10.35;;;8.40;99.90;;;;;;4932405;29;20130;-78
2024/02/16 08:57:53;;;;;;;19.13;9.23;;;8.50;99.90;;;;;;4914549;29;20043;-78
2024/02/16 09:00:23;;;;;;;18.38;7.57;;;8.60;99.90;;;;;;4929234;29;20058;-76
2024/02/16 09:02:52;;;;;;;15.70;7.65;;;8.70;99.90;;;;;;4933274;29;20039;-76
2024/02/16 09:05:21;;;;;;;14.80;6.75;;;8.90;99.90;;;;;;4910018;29;20079;-77
2024/02/16 09:07:49;;;;;;;13.25;6.63;;;8.90;99.90;;;;;;4925758;29;20420;-76
2024/02/16 09:10:18;;;;;;;16.08;6.45;;;9.00;99.90;;;;;;4911928;29;20048;-76
2024/02/16 09:12:46;;;;;;;20.60;5.90;;;9.10;99.90;;;;;;4935224;29;20075;-82
2024/02/16 09:15:16;;;;;;;9.32;4.53;;;9.10;99.90;;;;;;4914834;29;20087;-80
2024/02/16 09:17:44;;;;;;;12.38;5.63;;;9.10;99.90;;;;;;4912988;29;20107;-78
2024/02/16 09:20:13;;;;;;;13.35;5.95;;;9.10;99.90;;;;;;4916096;29;20056;-78
2024/02/16 09:22:42;;;;;;;10.85;5.15;;;9.20;99.90;;;;;;4916402;29;20462;-77
2024/02/16 09:25:14;;;;;;;;;;;9.20;99.70;;;;;;4910652;29;20052;-79
2024/02/16 09:27:44;;;;;;;10.57;4.60;;;9.20;99.70;;;;;;4924399;29;19939;-79
2024/02/16 09:30:16;;;;;;;12.77;5.65;;;9.20;99.40;;;;;;4911742;29;20060;-78
2024/02/16 09:32:45;;;;;;;12.95;7.05;;;9.30;99.00;;;;;;4934616;29;20048;-78
2024/02/16 09:35:14;;;;;;;14.95;6.55;;;9.50;99.40;;;;;;4912058;29;20044;-80
2024/02/16 09:37:42;;;;;;;16.38;6.65;;;9.60;99.10;;;;;;4920892;29;20052;-76
2024/02/16 09:40:13;;;;;;;14.18;6.32;;;9.70;99.00;;;;;;4914283;29;20046;-77
2024/02/16 09:42:42;;;;;;;20.60;7.28;;;9.60;98.60;;;;;;4929963;29;20048;-79
2024/02/16 09:45:12;;;;;;;15.60;6.85;;;9.80;99.20;;;;;;4928499;29;20056;-78
2024/02/16 09:47:44;;;;;;;14.95;7.45;;;10.00;98.10;;;;;;4932581;29;20505;-79
2024/02/16 09:50:28;;;;;;;13.85;6.88;;;10.20;98.50;;;;;;4916059;29;20103;-80
2024/02/16 09:52:58;;;;;;;12.80;6.30;;;10.20;97.50;;;;;;4929518;29;20047;-77
2024/02/16 09:55:29;;;;;;;18.00;7.85;;;10.10;96.90;;;;;;4911510;29;20110;-77
2024/02/16 09:58:01;;;;;;;16.40;8.40;;;10.10;97.40;;;;;;4929502;29;20040;-77
2024/02/16 10:00:29;;;;;;;17.05;7.45;;;10.30;98.10;;;;;;4927951;29;20051;-77
2024/02/16 10:02:59;;;;;;;16.02;7.93;;;10.30;97.80;;;;;;4908883;29;20048;-78
2024/02/16 10:05:30;;;;;;;16.73;8.25;;;10.40;97.30;;;;;;4932233;29;20058;-79
2024/02/16 10:07:59;;;;;;;17.92;7.88;;;10.20;96.80;;;;;;4931886;29;20087;-76
2024/02/16 10:10:30;;;;;;;18.00;8.00;;;10.00;97.10;;;;;;4931494;29;20103;-76
2024/02/16 10:13:03;;;;;;;17.15;7.60;;;10.10;97.40;;;;;;4933952;29;20047;-76
2024/02/16 10:15:32;;;;;;;16.33;8.20;;;10.30;97.60;;;;;;4932158;29;20690;-77
2024/02/16 10:18:03;;;;;;;18.90;8.23;;;10.30;97.50;;;;;;4929088;29;20036;-75
2024/02/16 10:20:33;;;;;;;14.15;7.60;;;10.40;97.10;;;;;;4931479;29;20046;-77
2024/02/16 10:23:08;;;;;;;16.70;8.32;;;10.40;97.00;;;;;;4910326;29;20114;-78
2024/02/16 10:25:37;;;;;;;16.35;8.05;;;10.40;96.80;;;;;;4933401;29;20068;-77
2024/02/16 10:28:07;;;;;;;14.38;7.63;;;10.50;97.10;;;;;;4917343;29;20123;-77
2024/02/16 10:30:38;;;;;;;15.30;7.00;;;10.70;98.40;;;;;;4929388;29;20387;-76
2024/02/16 10:33:08;;;;;;;14.00;6.60;;;10.80;97.20;;;;;;4934610;29;20047;-77
2024/02/16 10:35:38;;;;;;;17.33;8.55;;;10.90;96.70;;;;;;4915375;29;20075;-75
2024/02/16 10:38:10;;;;;;;15.05;5.97;;;10.80;96.20;;;;;;4911896;29;20446;-77
2024/02/16 10:40:40;;;;;;;12.50;6.65;;;11.00;96.60;;;;;;4932013;29;20412;-77
2024/02/16 10:43:10;;;;;;;12.93;5.97;;;10.90;95.80;;;;;;4931264;29;20059;-76
2024/02/16 10:45:40;;;;;;;11.98;6.28;;;10.90;96.30;;;;;;4929661;29;20058;-77
2024/02/16 10:48:11;;;;;;;13.60;6.07;;;11.00;96.50;;;;;;4910755;29;21276;-76
2024/02/16 10:50:40;;;;;;;13.27;5.55;;;11.10;95.70;;;;;;4914622;29;20047;-74
2024/02/16 10:53:14;;;;;;;14.63;6.35;;;11.20;95.50;;;;;;4933195;29;20122;-75
2024/02/16 10:55:44;;;;;;;10.90;6.15;;;11.20;94.90;;;;;;4914476;29;20047;-75
2024/02/16 10:58:14;;;;;;;11.27;5.22;;;11.30;95.60;;;;;;4916103;29;20063;-77
2024/02/16 11:00:52;;;;;;;17.10;6.03;;;11.30;95.60;;;;;;4931268;29;20556;-78
2024/02/16 11:03:27;;;;;;;12.55;5.70;;;11.50;95.80;;;;;;4930757;29;20057;-76
2024/02/16 11:05:59;;;;;;;12.32;5.80;;;11.40;94.70;;;;;;4929937;29;20047;-77
2024/02/16 11:08:46;;;;;;;13.85;6.30;;;11.50;94.90;;;;;;4914374;29;20043;-76
2024/02/16 11:11:24;;;;;;;12.00;5.68;;;11.50;95.00;;;;;;4911266;29;20834;-75
2024/02/16 11:13:56;;;;;;;12.05;5.03;;;11.70;95.50;;;;;;4930385;29;20428;-77
2024/02/16 11:16:24;;;;;;;12.88;5.70;;;11.60;95.20;;;;;;4929425;29;20127;-76
2024/02/16 11:18:58;;;;;;;11.00;6.00;;;11.70;95.30;;;;;;4911838;29;20071;-76
2024/02/16 11:21:27;;;;;;;14.25;6.43;;;11.70;94.80;;;;;;4929973;29;20508;-79
2024/02/16 11:24:07;;;;;;;10.75;5.55;;;11.80;95.30;;;;;;4926485;29;20040;-83
2024/02/16 11:26:43;;;;;;;11.80;6.30;;;11.80;94.70;;;;;;4930540;29;20039;-75
2024/02/16 11:29:12;;;;;;;16.83;8.35;;;11.80;94.90;;;;;;4932719;29;20107;-79
2024/02/16 11:31:41;;;;;;;14.82;6.57;;;11.90;95.60;;;;;;4931119;29;20043;-78
2024/02/16 11:34:11;;;;;;;15.27;8.32;;;11.90;94.90;;;;;;4911210;29;20048;-78
2024/02/16 11:36:39;;;;;;;13.95;8.27;;;12.00;95.30;;;;;;4908407;29;20055;-74
2024/02/16 11:39:16;;;;;;;11.77;6.05;;;12.00;94.30;;;;;;4928892;29;20043;-77
2024/02/16 11:41:45;;;;;;;11.18;5.50;;;12.10;95.00;;;;;;4928790;29;20054;-78
2024/02/16 11:44:16;;;;;;;13.07;6.15;;;12.00;94.10;;;;;;4912754;29;20067;-78
2024/02/16 11:46:45;;;;;;;14.23;6.72;;;12.00;94.10;;;;;;4928022;29;20055;-77
2024/02/16 11:49:15;;;;;;;13.35;6.97;;;12.00;94.80;;;;;;4929011;29;20047;-77
2024/02/16 11:51:44;;;;;;;11.60;5.70;;;11.90;94.00;;;;;;4930750;29;20456;-76
2024/02/16 11:54:13;;;;;;;12.55;6.30;;;12.00;94.10;;;;;;4907928;29;20040;-75
2024/02/16 11:56:44;;;;;;;11.90;6.22;;;12.00;94.50;;;;;;4931915;29;20048;-76
2024/02/16 11:59:15;;;;;;;10.40;5.20;;;12.20;95.20;;;;;;4906262;29;20144;-76
2024/02/16 12:01:51;;;;;;;9.70;5.30;;;12.30;94.40;;;;;;4912869;29;20125;-77
2024/02/16 12:04:25;;;;;;;11.63;5.00;;;12.30;94.00;;;;;;4930443;29;20043;-77
2024/02/16 12:06:56;;;;;;;11.70;5.72;;;12.20;93.60;;;;;;4933174;29;20078;-75
2024/02/16 12:09:29;;;;;;;11.50;5.40;;;12.10;93.30;;;;;;4932911;29;20779;-75
2024/02/16 12:11:59;;;;;;;15.70;6.05;;;12.00;93.90;;;;;;4931285;29;20043;-76
2024/02/16 12:14:28;;;;;;;10.82;5.75;;;12.10;93.60;;;;;;4912157;29;20048;-76
2024/02/16 12:16:58;;;;;;;9.20;4.47;;;12.10;94.20;;;;;;4918948;29;20052;-76
2024/02/16 12:19:28;;;;;;;10.98;5.18;;;12.30;94.60;;;;;;4909562;29;20142;-77
2024/02/16 12:21:58;;;;;;;12.63;5.53;;;12.30;94.10;;;;;;4915968;29;20536;-78
2024/02/16 12:24:27;;;;;;;12.98;6.18;;;12.30;93.70;;;;;;4910274;29;20075;-73
2024/02/16 12:26:56;;;;;;;9.20;4.97;;;12.30;93.70;;;;;;4928934;29;20078;-73
2024/02/16 12:29:25;;;;;;;16.35;9.15;;;12.20;93.90;;;;;;4909819;29;20043;-74
2024/02/16 12:31:54;;;;;;;12.18;5.55;;;12.30;94.30;;;;;;4911426;29;20107;-74
2024/02/16 12:34:25;;;;;;;13.23;7.28;;;12.30;93.60;;;;;;4913373;29;20717;-73
2024/02/16 12:36:55;;;;;;;40.72;19.65;;;12.20;93.60;;;;;;4903989;29;20138;-74
2024/02/16 12:39:24;;;;;;;12.90;6.45;;;12.30;94.10;;;;;;4913780;29;20051;-74
2024/02/16 12:41:53;;;;;;;11.52;5.35;;;12.40;94.40;;;;;;4910386;29;20130;-77
2024/02/16 12:44:22;;;;;;;11.55;5.18;;;12.40;93.80;;;;;;4915980;29;20474;-78
2024/02/16 12:46:51;;;;;;;10.65;5.03;;;12.40;93.70;;;;;;4934580;29;20043;-77
2024/02/16 12:49:22;;;;;;;11.30;5.35;;;12.40;94.00;;;;;;4918312;29;20079;-75